sensor_id;sensor_type;location;lat;lon;timestamp;P1;durP1;ratioP1;P2;durP2;ratioP2
44126;SDS011;29786;50.798;7.302;2022-12-18T00:00:04;18.3;;;12.8;;
44126;SDS011;29786;50.798;7.302;2022-12-18T00:01:05;19.5;;;13.3;;
44126;SDS011;29786;50.798;7.302;2022-12-18T00:02:04;20.3;;;13.6;;
44126;SDS011;29786;50.798;7.302;2022-12-18T00:03:04;27.2;;;18.2;;
44126;SDS011;29786;50.798;7.302;2022-12-18T00:04:05;24.9;;;14.8;;
44126;SDS011;29786;50.798;7.302;2022-12-18T00:05:04;21.5;;;14.9;;
44126;SDS011;29786;50.798;7.302;2022-12-18T00:06:04;23;;;14.7;;
44126;SDS011;29786;50.798;7.302;2022-12-18T00:07:04;22.7;;;14.4;;
44126;SDS011;29786;50.798;7.302;2022-12-18T00:08:04;22.8;;;15;;
44126;SDS011;29786;50.798;7.302;2022-12-18T00:09:04;23.1;;;14.5;;
44126;SDS011;29786;50.798;7.302;2022-12-18T00:10:04;22.8;;;15.3;;
44126;SDS011;29786;50.798;7.302;2022-12-18T00:11:04;24.2;;;16.4;;
44126;SDS011;29786;50.798;7.302;2022-12-18T00:12:04;27.7;;;18.6;;
44126;SDS011;29786;50.798;7.302;2022-12-18T00:13:04;22.5;;;14.8;;
44126;SDS011;29786;50.798;7.302;2022-12-18T00:14:04;20.5;;;14.5;;
44126;SDS011;29786;50.798;7.302;2022-12-18T00:15:04;23.9;;;16.5;;
44126;SDS011;29786;50.798;7.302;2022-12-18T00:16:06;21.7;;;13.6;;
44126;SDS011;29786;50.798;7.302;2022-12-18T00:17:05;21;;;13.7;;
44126;SDS011;29786;50.798;7.302;2022-12-18T00:18:04;21;;;14.2;;
44126;SDS011;29786;50.798;7.302;2022-12-18T00:19:04;19.7;;;14.3;;
44126;SDS011;29786;50.798;7.302;2022-12-18T00:20:04;22.2;;;14.6;;
44126;SDS011;29786;50.798;7.302;2022-12-18T00:21:05;20.9;;;14.2;;
44126;SDS011;29786;50.798;7.302;2022-12-18T00:22:04;22.3;;;15.6;;
44126;SDS011;29786;50.798;7.302;2022-12-18T00:23:04;22.6;;;14.5;;
44126;SDS011;29786;50.798;7.302;2022-12-18T00:24:04;20.9;;;13.7;;
44126;SDS011;29786;50.798;7.302;2022-12-18T00:25:04;20.6;;;13.7;;
44126;SDS011;29786;50.798;7.302;2022-12-18T00:26:05;20.3;;;14.3;;
44126;SDS011;29786;50.798;7.302;2022-12-18T00:27:04;20.5;;;14.3;;
44126;SDS011;29786;50.798;7.302;2022-12-18T00:28:04;21.7;;;14;;
44126;SDS011;29786;50.798;7.302;2022-12-18T00:29:09;20.5;;;14.2;;
44126;SDS011;29786;50.798;7.302;2022-12-18T00:30:04;22.6;;;14.9;;
44126;SDS011;29786;50.798;7.302;2022-12-18T00:31:05;23.8;;;14.3;;
44126;SDS011;29786;50.798;7.302;2022-12-18T00:32:04;21.4;;;15.3;;
44126;SDS011;29786;50.798;7.302;2022-12-18T00:33:05;22.9;;;14.6;;
44126;SDS011;29786;50.798;7.302;2022-12-18T00:34:05;21.4;;;14.4;;
44126;SDS011;29786;50.798;7.302;2022-12-18T00:35:04;17.6;;;12.7;;
44126;SDS011;29786;50.798;7.302;2022-12-18T00:36:05;22.8;;;15.1;;
44126;SDS011;29786;50.798;7.302;2022-12-18T00:37:04;21.5;;;14;;
44126;SDS011;29786;50.798;7.302;2022-12-18T00:38:03;20;;;13.9;;
44126;SDS011;29786;50.798;7.302;2022-12-18T00:39:04;20.3;;;13.9;;
44126;SDS011;29786;50.798;7.302;2022-12-18T00:40:04;20.2;;;14.4;;
44126;SDS011;29786;50.798;7.302;2022-12-18T00:41:04;19;;;13.4;;
44126;SDS011;29786;50.798;7.302;2022-12-18T00:42:04;24.9;;;15.2;;
44126;SDS011;29786;50.798;7.302;2022-12-18T00:43:04;22.2;;;14.1;;
44126;SDS011;29786;50.798;7.302;2022-12-18T00:44:05;19.7;;;13.3;;
44126;SDS011;29786;50.798;7.302;2022-12-18T00:45:04;19.5;;;13.9;;
44126;SDS011;29786;50.798;7.302;2022-12-18T00:46:04;22.8;;;14.8;;
44126;SDS011;29786;50.798;7.302;2022-12-18T00:47:04;19.1;;;13.2;;
44126;SDS011;29786;50.798;7.302;2022-12-18T00:48:04;19.1;;;13.7;;
44126;SDS011;29786;50.798;7.302;2022-12-18T00:49:05;17.7;;;13.4;;
44126;SDS011;29786;50.798;7.302;2022-12-18T00:50:04;19.8;;;13.7;;
44126;SDS011;29786;50.798;7.302;2022-12-18T00:51:04;22.2;;;13.7;;
44126;SDS011;29786;50.798;7.302;2022-12-18T00:52:04;21;;;13.7;;
44126;SDS011;29786;50.798;7.302;2022-12-18T00:53:04;21.7;;;14.1;;
44126;SDS011;29786;50.798;7.302;2022-12-18T00:54:04;19.2;;;13.7;;
44126;SDS011;29786;50.798;7.302;2022-12-18T00:55:04;22.2;;;14.2;;
44126;SDS011;29786;50.798;7.302;2022-12-18T00:56:04;20;;;13.3;;
44126;SDS011;29786;50.798;7.302;2022-12-18T00:57:04;17.5;;;13.3;;
44126;SDS011;29786;50.798;7.302;2022-12-18T00:58:04;20.6;;;13.9;;
44126;SDS011;29786;50.798;7.302;2022-12-18T00:59:04;18.4;;;13.1;;
44126;SDS011;29786;50.798;7.302;2022-12-18T01:00:05;20.9;;;13.8;;
44126;SDS011;29786;50.798;7.302;2022-12-18T01:01:05;21;;;14.2;;
44126;SDS011;29786;50.798;7.302;2022-12-18T01:02:04;20.3;;;13.7;;
44126;SDS011;29786;50.798;7.302;2022-12-18T01:03:05;19.4;;;13.5;;
44126;SDS011;29786;50.798;7.302;2022-12-18T01:04:04;21.1;;;14.1;;
44126;SDS011;29786;50.798;7.302;2022-12-18T01:05:04;21.9;;;14.6;;
44126;SDS011;29786;50.798;7.302;2022-12-18T01:06:05;20.8;;;13.9;;
44126;SDS011;29786;50.798;7.302;2022-12-18T01:07:04;19;;;14.4;;
44126;SDS011;29786;50.798;7.302;2022-12-18T01:08:04;20.8;;;14.2;;
44126;SDS011;29786;50.798;7.302;2022-12-18T01:09:04;19.3;;;13.4;;
44126;SDS011;29786;50.798;7.302;2022-12-18T01:10:04;20.3;;;13.4;;
44126;SDS011;29786;50.798;7.302;2022-12-18T01:11:08;21.9;;;14.3;;
44126;SDS011;29786;50.798;7.302;2022-12-18T01:12:04;21;;;14.7;;
44126;SDS011;29786;50.798;7.302;2022-12-18T01:13:04;19.2;;;14.1;;
44126;SDS011;29786;50.798;7.302;2022-12-18T01:14:04;19.8;;;13.7;;
44126;SDS011;29786;50.798;7.302;2022-12-18T01:15:04;19;;;13.6;;
44126;SDS011;29786;50.798;7.302;2022-12-18T01:16:04;19.9;;;14;;
44126;SDS011;29786;50.798;7.302;2022-12-18T01:17:04;19.9;;;12.9;;
44126;SDS011;29786;50.798;7.302;2022-12-18T01:18:04;21.3;;;13.3;;
44126;SDS011;29786;50.798;7.302;2022-12-18T01:19:04;20.5;;;13.9;;
44126;SDS011;29786;50.798;7.302;2022-12-18T01:20:04;18.4;;;13;;
44126;SDS011;29786;50.798;7.302;2022-12-18T01:21:05;20.2;;;13.2;;
44126;SDS011;29786;50.798;7.302;2022-12-18T01:22:04;18.3;;;12.6;;
44126;SDS011;29786;50.798;7.302;2022-12-18T01:23:03;21.3;;;14.2;;
44126;SDS011;29786;50.798;7.302;2022-12-18T01:24:04;18.4;;;13.5;;
44126;SDS011;29786;50.798;7.302;2022-12-18T01:25:04;19.3;;;14.4;;
44126;SDS011;29786;50.798;7.302;2022-12-18T01:26:13;21.1;;;13.9;;
44126;SDS011;29786;50.798;7.302;2022-12-18T01:27:04;19.6;;;13.5;;
44126;SDS011;29786;50.798;7.302;2022-12-18T01:28:04;18.1;;;13.2;;
44126;SDS011;29786;50.798;7.302;2022-12-18T01:29:04;19.6;;;13.5;;
44126;SDS011;29786;50.798;7.302;2022-12-18T01:30:04;19.6;;;13.5;;
44126;SDS011;29786;50.798;7.302;2022-12-18T01:31:18;18.3;;;13.2;;
44126;SDS011;29786;50.798;7.302;2022-12-18T01:32:04;19.4;;;13.4;;
44126;SDS011;29786;50.798;7.302;2022-12-18T01:33:04;19.2;;;12.9;;
44126;SDS011;29786;50.798;7.302;2022-12-18T01:34:04;20;;;12.9;;
44126;SDS011;29786;50.798;7.302;2022-12-18T01:35:04;17.6;;;13.5;;
44126;SDS011;29786;50.798;7.302;2022-12-18T01:36:04;20.2;;;13.9;;
44126;SDS011;29786;50.798;7.302;2022-12-18T01:37:04;18.7;;;12.9;;
44126;SDS011;29786;50.798;7.302;2022-12-18T01:38:04;18.7;;;12.9;;
44126;SDS011;29786;50.798;7.302;2022-12-18T01:39:06;19.7;;;13.8;;
44126;SDS011;29786;50.798;7.302;2022-12-18T01:40:04;20.3;;;13.1;;
44126;SDS011;29786;50.798;7.302;2022-12-18T01:41:04;19.4;;;13.7;;
44126;SDS011;29786;50.798;7.302;2022-12-18T01:42:13;20.3;;;13.9;;
44126;SDS011;29786;50.798;7.302;2022-12-18T01:43:04;19.2;;;13.5;;
44126;SDS011;29786;50.798;7.302;2022-12-18T01:44:46;17.7;;;12.6;;
44126;SDS011;29786;50.798;7.302;2022-12-18T01:45:06;19.2;;;13;;
44126;SDS011;29786;50.798;7.302;2022-12-18T01:46:04;19.3;;;13.8;;
44126;SDS011;29786;50.798;7.302;2022-12-18T01:47:04;18.5;;;13.1;;
44126;SDS011;29786;50.798;7.302;2022-12-18T01:48:05;19.7;;;13.1;;
44126;SDS011;29786;50.798;7.302;2022-12-18T01:49:04;15.2;;;12.5;;
44126;SDS011;29786;50.798;7.302;2022-12-18T01:50:09;16.2;;;12.6;;
44126;SDS011;29786;50.798;7.302;2022-12-18T01:51:04;17.9;;;13;;
44126;SDS011;29786;50.798;7.302;2022-12-18T01:52:04;17.3;;;12.3;;
44126;SDS011;29786;50.798;7.302;2022-12-18T01:53:09;20.6;;;12.9;;
44126;SDS011;29786;50.798;7.302;2022-12-18T01:54:04;18.2;;;12.7;;
44126;SDS011;29786;50.798;7.302;2022-12-18T01:55:04;18.2;;;13;;
44126;SDS011;29786;50.798;7.302;2022-12-18T01:56:05;17;;;12.9;;
44126;SDS011;29786;50.798;7.302;2022-12-18T01:57:05;18.8;;;13.2;;
44126;SDS011;29786;50.798;7.302;2022-12-18T01:58:04;19.7;;;12.3;;
44126;SDS011;29786;50.798;7.302;2022-12-18T01:59:05;18;;;12.8;;
44126;SDS011;29786;50.798;7.302;2022-12-18T02:00:07;18.9;;;12.3;;
44126;SDS011;29786;50.798;7.302;2022-12-18T02:01:04;17.3;;;12.6;;
44126;SDS011;29786;50.798;7.302;2022-12-18T02:02:04;17.7;;;13.8;;
44126;SDS011;29786;50.798;7.302;2022-12-18T02:03:04;16.9;;;12.7;;
44126;SDS011;29786;50.798;7.302;2022-12-18T02:04:36;18.3;;;12.5;;
44126;SDS011;29786;50.798;7.302;2022-12-18T02:05:04;16.7;;;13;;
44126;SDS011;29786;50.798;7.302;2022-12-18T02:06:10;19;;;12.9;;
44126;SDS011;29786;50.798;7.302;2022-12-18T02:07:07;16.9;;;12.8;;
44126;SDS011;29786;50.798;7.302;2022-12-18T02:08:20;17.9;;;12.2;;
44126;SDS011;29786;50.798;7.302;2022-12-18T02:09:08;18.1;;;12.4;;
44126;SDS011;29786;50.798;7.302;2022-12-18T02:10:06;15.7;;;11.9;;
44126;SDS011;29786;50.798;7.302;2022-12-18T02:11:06;17.9;;;12.6;;
44126;SDS011;29786;50.798;7.302;2022-12-18T02:12:06;15.7;;;12.6;;
44126;SDS011;29786;50.798;7.302;2022-12-18T02:13:09;17.6;;;13;;
44126;SDS011;29786;50.798;7.302;2022-12-18T02:14:08;16.4;;;12.4;;
44126;SDS011;29786;50.798;7.302;2022-12-18T02:15:07;15.7;;;12.1;;
44126;SDS011;29786;50.798;7.302;2022-12-18T02:17:06;17;;;12.7;;
44126;SDS011;29786;50.798;7.302;2022-12-18T02:17:11;19;;;12.6;;
44126;SDS011;29786;50.798;7.302;2022-12-18T02:18:08;19.7;;;12.8;;
44126;SDS011;29786;50.798;7.302;2022-12-18T02:19:08;19.2;;;13.1;;
44126;SDS011;29786;50.798;7.302;2022-12-18T02:20:08;15;;;11.7;;
44126;SDS011;29786;50.798;7.302;2022-12-18T02:21:08;18.1;;;12.6;;
44126;SDS011;29786;50.798;7.302;2022-12-18T02:22:08;16.4;;;12.4;;
44126;SDS011;29786;50.798;7.302;2022-12-18T02:23:06;18.8;;;13;;
44126;SDS011;29786;50.798;7.302;2022-12-18T02:24:11;17.2;;;12.8;;
44126;SDS011;29786;50.798;7.302;2022-12-18T02:25:12;15.7;;;12.8;;
44126;SDS011;29786;50.798;7.302;2022-12-18T02:26:22;16.1;;;11.6;;
44126;SDS011;29786;50.798;7.302;2022-12-18T02:27:05;16.2;;;12.3;;
44126;SDS011;29786;50.798;7.302;2022-12-18T02:28:04;17.4;;;12.4;;
44126;SDS011;29786;50.798;7.302;2022-12-18T02:29:06;16.5;;;12.4;;
44126;SDS011;29786;50.798;7.302;2022-12-18T02:30:04;16.3;;;12.1;;
44126;SDS011;29786;50.798;7.302;2022-12-18T02:31:04;18.5;;;13.1;;
44126;SDS011;29786;50.798;7.302;2022-12-18T02:32:05;18.3;;;12.5;;
44126;SDS011;29786;50.798;7.302;2022-12-18T02:33:05;17.9;;;12.9;;
44126;SDS011;29786;50.798;7.302;2022-12-18T02:34:04;17.2;;;12;;
44126;SDS011;29786;50.798;7.302;2022-12-18T02:35:04;15.1;;;11.4;;
44126;SDS011;29786;50.798;7.302;2022-12-18T02:36:04;15.6;;;11.8;;
44126;SDS011;29786;50.798;7.302;2022-12-18T02:37:07;17.7;;;12.5;;
44126;SDS011;29786;50.798;7.302;2022-12-18T02:38:04;15.9;;;11.8;;
44126;SDS011;29786;50.798;7.302;2022-12-18T02:39:05;15.5;;;12.1;;
44126;SDS011;29786;50.798;7.302;2022-12-18T02:40:04;14.7;;;11.9;;
44126;SDS011;29786;50.798;7.302;2022-12-18T02:41:04;16.1;;;11.8;;
44126;SDS011;29786;50.798;7.302;2022-12-18T02:42:04;17;;;12.3;;
44126;SDS011;29786;50.798;7.302;2022-12-18T02:43:08;15.7;;;11.8;;
44126;SDS011;29786;50.798;7.302;2022-12-18T02:44:08;16.3;;;12.2;;
44126;SDS011;29786;50.798;7.302;2022-12-18T02:45:04;16.2;;;12.3;;
44126;SDS011;29786;50.798;7.302;2022-12-18T02:46:23;17.7;;;12.1;;
44126;SDS011;29786;50.798;7.302;2022-12-18T02:47:04;17.1;;;11.8;;
44126;SDS011;29786;50.798;7.302;2022-12-18T02:48:04;14.4;;;10.9;;
44126;SDS011;29786;50.798;7.302;2022-12-18T02:49:07;16.8;;;12.1;;
44126;SDS011;29786;50.798;7.302;2022-12-18T02:50:38;15.8;;;12.1;;
44126;SDS011;29786;50.798;7.302;2022-12-18T02:51:08;19;;;12.5;;
44126;SDS011;29786;50.798;7.302;2022-12-18T02:52:06;18.1;;;11.7;;
44126;SDS011;29786;50.798;7.302;2022-12-18T02:53:24;16.8;;;11.7;;
44126;SDS011;29786;50.798;7.302;2022-12-18T02:54:08;15.8;;;12.1;;
44126;SDS011;29786;50.798;7.302;2022-12-18T02:56:10;15.4;;;11.8;;
44126;SDS011;29786;50.798;7.302;2022-12-18T02:57:07;17.3;;;12.4;;
44126;SDS011;29786;50.798;7.302;2022-12-18T02:58:07;14.9;;;11.3;;
44126;SDS011;29786;50.798;7.302;2022-12-18T02:59:06;14.6;;;11.8;;
44126;SDS011;29786;50.798;7.302;2022-12-18T03:00:08;17.2;;;12.9;;
44126;SDS011;29786;50.798;7.302;2022-12-18T03:01:09;15.9;;;11.7;;
44126;SDS011;29786;50.798;7.302;2022-12-18T03:02:07;17.3;;;12.4;;
44126;SDS011;29786;50.798;7.302;2022-12-18T03:03:06;16.9;;;12;;
44126;SDS011;29786;50.798;7.302;2022-12-18T03:04:05;18.2;;;12.7;;
44126;SDS011;29786;50.798;7.302;2022-12-18T03:05:08;17.3;;;12.3;;
44126;SDS011;29786;50.798;7.302;2022-12-18T03:06:06;13.3;;;11.2;;
44126;SDS011;29786;50.798;7.302;2022-12-18T03:07:05;15.2;;;11.7;;
44126;SDS011;29786;50.798;7.302;2022-12-18T03:08:06;17.5;;;12.5;;
44126;SDS011;29786;50.798;7.302;2022-12-18T03:09:06;17.3;;;12.6;;
44126;SDS011;29786;50.798;7.302;2022-12-18T03:10:04;17.7;;;12.6;;
44126;SDS011;29786;50.798;7.302;2022-12-18T03:11:05;16.8;;;12.2;;
44126;SDS011;29786;50.798;7.302;2022-12-18T03:12:06;13.9;;;11.8;;
44126;SDS011;29786;50.798;7.302;2022-12-18T03:13:06;17.7;;;12.7;;
44126;SDS011;29786;50.798;7.302;2022-12-18T03:14:05;18.8;;;13.8;;
44126;SDS011;29786;50.798;7.302;2022-12-18T03:15:08;16.5;;;12.9;;
44126;SDS011;29786;50.798;7.302;2022-12-18T03:16:05;16.8;;;12.3;;
44126;SDS011;29786;50.798;7.302;2022-12-18T03:17:05;17.4;;;12.7;;
44126;SDS011;29786;50.798;7.302;2022-12-18T03:18:05;18.3;;;13.6;;
44126;SDS011;29786;50.798;7.302;2022-12-18T03:19:06;16.9;;;13.3;;
44126;SDS011;29786;50.798;7.302;2022-12-18T03:20:06;20.6;;;13.6;;
44126;SDS011;29786;50.798;7.302;2022-12-18T03:21:05;19.9;;;13.6;;
44126;SDS011;29786;50.798;7.302;2022-12-18T03:22:04;21;;;13.5;;
44126;SDS011;29786;50.798;7.302;2022-12-18T03:23:07;21;;;13.9;;
44126;SDS011;29786;50.798;7.302;2022-12-18T03:24:05;18.4;;;14;;
44126;SDS011;29786;50.798;7.302;2022-12-18T03:25:06;19.3;;;14;;
44126;SDS011;29786;50.798;7.302;2022-12-18T03:26:05;19;;;13.3;;
44126;SDS011;29786;50.798;7.302;2022-12-18T03:27:06;18.5;;;13.6;;
44126;SDS011;29786;50.798;7.302;2022-12-18T03:28:04;19.1;;;14.3;;
44126;SDS011;29786;50.798;7.302;2022-12-18T03:29:07;18.9;;;13.7;;
44126;SDS011;29786;50.798;7.302;2022-12-18T03:30:05;20.5;;;13.7;;
44126;SDS011;29786;50.798;7.302;2022-12-18T03:31:04;17.1;;;13.8;;
44126;SDS011;29786;50.798;7.302;2022-12-18T03:32:06;21.1;;;14.5;;
44126;SDS011;29786;50.798;7.302;2022-12-18T03:33:07;18.4;;;13.7;;
44126;SDS011;29786;50.798;7.302;2022-12-18T03:34:05;18.9;;;13.3;;
44126;SDS011;29786;50.798;7.302;2022-12-18T03:35:04;19.7;;;14;;
44126;SDS011;29786;50.798;7.302;2022-12-18T03:36:04;18.6;;;13.8;;
44126;SDS011;29786;50.798;7.302;2022-12-18T03:37:05;19.5;;;13.7;;
44126;SDS011;29786;50.798;7.302;2022-12-18T03:38:04;20.7;;;14.2;;
44126;SDS011;29786;50.798;7.302;2022-12-18T03:39:04;19;;;13.3;;
44126;SDS011;29786;50.798;7.302;2022-12-18T03:40:05;19;;;13.5;;
44126;SDS011;29786;50.798;7.302;2022-12-18T03:41:11;17.8;;;12.7;;
44126;SDS011;29786;50.798;7.302;2022-12-18T03:42:10;18.2;;;13.2;;
44126;SDS011;29786;50.798;7.302;2022-12-18T03:43:08;19.1;;;13.6;;
44126;SDS011;29786;50.798;7.302;2022-12-18T03:45:13;19.3;;;13.7;;
44126;SDS011;29786;50.798;7.302;2022-12-18T03:46:08;18.6;;;13.5;;
44126;SDS011;29786;50.798;7.302;2022-12-18T03:47:05;18;;;13.2;;
44126;SDS011;29786;50.798;7.302;2022-12-18T03:48:05;18.6;;;13.5;;
44126;SDS011;29786;50.798;7.302;2022-12-18T03:49:08;18.6;;;13.6;;
44126;SDS011;29786;50.798;7.302;2022-12-18T03:50:08;19.5;;;13.5;;
44126;SDS011;29786;50.798;7.302;2022-12-18T03:51:06;17.4;;;13.6;;
44126;SDS011;29786;50.798;7.302;2022-12-18T03:52:06;20.3;;;13.6;;
44126;SDS011;29786;50.798;7.302;2022-12-18T03:53:09;16.5;;;12.5;;
44126;SDS011;29786;50.798;7.302;2022-12-18T03:54:05;17.5;;;13.2;;
44126;SDS011;29786;50.798;7.302;2022-12-18T03:55:04;16.2;;;12.9;;
44126;SDS011;29786;50.798;7.302;2022-12-18T03:56:04;18;;;13.2;;
44126;SDS011;29786;50.798;7.302;2022-12-18T03:57:06;15.8;;;12.6;;
44126;SDS011;29786;50.798;7.302;2022-12-18T03:58:04;17.3;;;12.6;;
44126;SDS011;29786;50.798;7.302;2022-12-18T03:59:05;16.5;;;13;;
44126;SDS011;29786;50.798;7.302;2022-12-18T04:00:06;17.3;;;13.4;;
44126;SDS011;29786;50.798;7.302;2022-12-18T04:01:05;18.4;;;13.5;;
44126;SDS011;29786;50.798;7.302;2022-12-18T04:02:04;19.5;;;13.3;;
44126;SDS011;29786;50.798;7.302;2022-12-18T04:03:04;17.3;;;12.6;;
44126;SDS011;29786;50.798;7.302;2022-12-18T04:04:04;19.1;;;13.1;;
44126;SDS011;29786;50.798;7.302;2022-12-18T04:05:04;18.1;;;12.8;;
44126;SDS011;29786;50.798;7.302;2022-12-18T04:06:04;18.4;;;12.7;;
44126;SDS011;29786;50.798;7.302;2022-12-18T04:07:04;18.7;;;13.3;;
44126;SDS011;29786;50.798;7.302;2022-12-18T04:08:04;17.1;;;12.4;;
44126;SDS011;29786;50.798;7.302;2022-12-18T04:09:04;16.8;;;12.6;;
44126;SDS011;29786;50.798;7.302;2022-12-18T04:10:04;18;;;12.9;;
44126;SDS011;29786;50.798;7.302;2022-12-18T04:11:04;17.5;;;12.3;;
44126;SDS011;29786;50.798;7.302;2022-12-18T04:12:04;16.8;;;12.5;;
44126;SDS011;29786;50.798;7.302;2022-12-18T04:13:04;17;;;12.5;;
44126;SDS011;29786;50.798;7.302;2022-12-18T04:14:04;19.3;;;12.5;;
44126;SDS011;29786;50.798;7.302;2022-12-18T04:15:05;16.3;;;12.4;;
44126;SDS011;29786;50.798;7.302;2022-12-18T04:16:04;19;;;13.5;;
44126;SDS011;29786;50.798;7.302;2022-12-18T04:17:04;17.9;;;12.3;;
44126;SDS011;29786;50.798;7.302;2022-12-18T04:18:04;19.7;;;13.7;;
44126;SDS011;29786;50.798;7.302;2022-12-18T04:19:04;17.1;;;12.4;;
44126;SDS011;29786;50.798;7.302;2022-12-18T04:20:04;19;;;12.9;;
44126;SDS011;29786;50.798;7.302;2022-12-18T04:21:04;16.5;;;12.6;;
44126;SDS011;29786;50.798;7.302;2022-12-18T04:22:04;16.4;;;12.6;;
44126;SDS011;29786;50.798;7.302;2022-12-18T04:23:04;16.2;;;12.6;;
44126;SDS011;29786;50.798;7.302;2022-12-18T04:24:04;16.3;;;12.6;;
44126;SDS011;29786;50.798;7.302;2022-12-18T04:25:05;18;;;13.3;;
44126;SDS011;29786;50.798;7.302;2022-12-18T04:26:04;16.7;;;12.6;;
44126;SDS011;29786;50.798;7.302;2022-12-18T04:27:04;16.9;;;12.3;;
44126;SDS011;29786;50.798;7.302;2022-12-18T04:28:04;16.1;;;12.5;;
44126;SDS011;29786;50.798;7.302;2022-12-18T04:29:03;16.4;;;12.2;;
44126;SDS011;29786;50.798;7.302;2022-12-18T04:30:04;15.2;;;11.9;;
44126;SDS011;29786;50.798;7.302;2022-12-18T04:31:04;16.8;;;12.3;;
44126;SDS011;29786;50.798;7.302;2022-12-18T04:32:04;17.6;;;12;;
44126;SDS011;29786;50.798;7.302;2022-12-18T04:33:07;16;;;12.1;;
44126;SDS011;29786;50.798;7.302;2022-12-18T04:34:04;18.2;;;12.7;;
44126;SDS011;29786;50.798;7.302;2022-12-18T04:35:04;16.4;;;11.8;;
44126;SDS011;29786;50.798;7.302;2022-12-18T04:36:04;15.5;;;11.9;;
44126;SDS011;29786;50.798;7.302;2022-12-18T04:37:04;17;;;11.6;;
44126;SDS011;29786;50.798;7.302;2022-12-18T04:38:05;16.8;;;12.4;;
44126;SDS011;29786;50.798;7.302;2022-12-18T04:39:04;15.2;;;11.8;;
44126;SDS011;29786;50.798;7.302;2022-12-18T04:40:04;16.9;;;12.5;;
44126;SDS011;29786;50.798;7.302;2022-12-18T04:41:04;16.7;;;13.2;;
44126;SDS011;29786;50.798;7.302;2022-12-18T04:42:04;16;;;12.5;;
44126;SDS011;29786;50.798;7.302;2022-12-18T04:43:04;14.5;;;11.7;;
44126;SDS011;29786;50.798;7.302;2022-12-18T04:44:04;17.3;;;12.9;;
44126;SDS011;29786;50.798;7.302;2022-12-18T04:45:04;17.1;;;12.9;;
44126;SDS011;29786;50.798;7.302;2022-12-18T04:46:04;16;;;13.1;;
44126;SDS011;29786;50.798;7.302;2022-12-18T04:47:04;16.9;;;12.6;;
44126;SDS011;29786;50.798;7.302;2022-12-18T04:48:04;17.4;;;12.8;;
44126;SDS011;29786;50.798;7.302;2022-12-18T04:49:04;15.9;;;12.3;;
44126;SDS011;29786;50.798;7.302;2022-12-18T04:50:04;16.8;;;12.9;;
44126;SDS011;29786;50.798;7.302;2022-12-18T04:51:04;17.4;;;12.8;;
44126;SDS011;29786;50.798;7.302;2022-12-18T04:52:08;18.5;;;13.3;;
44126;SDS011;29786;50.798;7.302;2022-12-18T04:53:04;14.9;;;12.3;;
44126;SDS011;29786;50.798;7.302;2022-12-18T04:54:04;19;;;13.6;;
44126;SDS011;29786;50.798;7.302;2022-12-18T04:55:05;16.8;;;13;;
44126;SDS011;29786;50.798;7.302;2022-12-18T04:56:06;18;;;13;;
44126;SDS011;29786;50.798;7.302;2022-12-18T04:57:04;16.2;;;12.7;;
44126;SDS011;29786;50.798;7.302;2022-12-18T04:58:05;18;;;13.5;;
44126;SDS011;29786;50.798;7.302;2022-12-18T04:59:04;15.4;;;12.8;;
44126;SDS011;29786;50.798;7.302;2022-12-18T05:00:04;17;;;12.7;;
44126;SDS011;29786;50.798;7.302;2022-12-18T05:01:04;17.7;;;13.6;;
44126;SDS011;29786;50.798;7.302;2022-12-18T05:02:04;20.5;;;13.8;;
44126;SDS011;29786;50.798;7.302;2022-12-18T05:03:04;17.1;;;12.3;;
44126;SDS011;29786;50.798;7.302;2022-12-18T05:04:04;17.1;;;12.6;;
44126;SDS011;29786;50.798;7.302;2022-12-18T05:05:04;17.5;;;13.1;;
44126;SDS011;29786;50.798;7.302;2022-12-18T05:06:04;18.2;;;13.8;;
44126;SDS011;29786;50.798;7.302;2022-12-18T05:07:04;18.8;;;13.7;;
44126;SDS011;29786;50.798;7.302;2022-12-18T05:08:04;18;;;13;;
44126;SDS011;29786;50.798;7.302;2022-12-18T05:09:04;18;;;13.2;;
44126;SDS011;29786;50.798;7.302;2022-12-18T05:10:04;17;;;13;;
44126;SDS011;29786;50.798;7.302;2022-12-18T05:11:05;18.1;;;13.7;;
44126;SDS011;29786;50.798;7.302;2022-12-18T05:12:04;18.2;;;13.2;;
44126;SDS011;29786;50.798;7.302;2022-12-18T05:13:04;15.8;;;13.1;;
44126;SDS011;29786;50.798;7.302;2022-12-18T05:14:04;19.7;;;13.1;;
44126;SDS011;29786;50.798;7.302;2022-12-18T05:15:04;18.2;;;13.3;;
44126;SDS011;29786;50.798;7.302;2022-12-18T05:16:04;17.9;;;13.1;;
44126;SDS011;29786;50.798;7.302;2022-12-18T05:17:04;19.3;;;13.6;;
44126;SDS011;29786;50.798;7.302;2022-12-18T05:18:04;18.3;;;13.3;;
44126;SDS011;29786;50.798;7.302;2022-12-18T05:19:04;18.4;;;13.2;;
44126;SDS011;29786;50.798;7.302;2022-12-18T05:20:04;16.4;;;12.6;;
44126;SDS011;29786;50.798;7.302;2022-12-18T05:21:04;19.2;;;13.3;;
44126;SDS011;29786;50.798;7.302;2022-12-18T05:22:04;18.8;;;14.1;;
44126;SDS011;29786;50.798;7.302;2022-12-18T05:23:04;22;;;14.9;;
44126;SDS011;29786;50.798;7.302;2022-12-18T05:24:04;20.3;;;13.5;;
44126;SDS011;29786;50.798;7.302;2022-12-18T05:25:04;17.7;;;13.1;;
44126;SDS011;29786;50.798;7.302;2022-12-18T05:26:04;19;;;13.6;;
44126;SDS011;29786;50.798;7.302;2022-12-18T05:27:04;19.2;;;13.2;;
44126;SDS011;29786;50.798;7.302;2022-12-18T05:28:04;19.6;;;13.5;;
44126;SDS011;29786;50.798;7.302;2022-12-18T05:29:04;19.1;;;13.5;;
44126;SDS011;29786;50.798;7.302;2022-12-18T05:30:04;18.8;;;13.7;;
44126;SDS011;29786;50.798;7.302;2022-12-18T05:31:04;18.5;;;13.8;;
44126;SDS011;29786;50.798;7.302;2022-12-18T05:32:04;18.7;;;13.2;;
44126;SDS011;29786;50.798;7.302;2022-12-18T05:33:04;18.6;;;13.1;;
44126;SDS011;29786;50.798;7.302;2022-12-18T05:34:04;19.6;;;13.9;;
44126;SDS011;29786;50.798;7.302;2022-12-18T05:35:05;18.9;;;13.7;;
44126;SDS011;29786;50.798;7.302;2022-12-18T05:36:05;17.7;;;13.1;;
44126;SDS011;29786;50.798;7.302;2022-12-18T05:37:04;19.1;;;14.2;;
44126;SDS011;29786;50.798;7.302;2022-12-18T05:38:04;17.4;;;13.6;;
44126;SDS011;29786;50.798;7.302;2022-12-18T05:39:04;17.9;;;13.4;;
44126;SDS011;29786;50.798;7.302;2022-12-18T05:40:04;19.5;;;13.3;;
44126;SDS011;29786;50.798;7.302;2022-12-18T05:41:04;18.2;;;13.3;;
44126;SDS011;29786;50.798;7.302;2022-12-18T05:42:04;17.6;;;12.9;;
44126;SDS011;29786;50.798;7.302;2022-12-18T05:43:05;19.4;;;13.8;;
44126;SDS011;29786;50.798;7.302;2022-12-18T05:44:05;19.5;;;13.7;;
44126;SDS011;29786;50.798;7.302;2022-12-18T05:45:05;19.3;;;13.3;;
44126;SDS011;29786;50.798;7.302;2022-12-18T05:46:06;18.3;;;13.5;;
44126;SDS011;29786;50.798;7.302;2022-12-18T05:47:04;19.9;;;13.6;;
44126;SDS011;29786;50.798;7.302;2022-12-18T05:48:04;18;;;13.6;;
44126;SDS011;29786;50.798;7.302;2022-12-18T05:49:04;18.5;;;14.1;;
44126;SDS011;29786;50.798;7.302;2022-12-18T05:50:04;17.3;;;12.9;;
44126;SDS011;29786;50.798;7.302;2022-12-18T05:51:09;19.1;;;13.6;;
44126;SDS011;29786;50.798;7.302;2022-12-18T05:52:04;19.6;;;14.2;;
44126;SDS011;29786;50.798;7.302;2022-12-18T05:53:04;19.3;;;13.2;;
44126;SDS011;29786;50.798;7.302;2022-12-18T05:54:04;19.7;;;13.3;;
44126;SDS011;29786;50.798;7.302;2022-12-18T05:55:04;18.5;;;13.5;;
44126;SDS011;29786;50.798;7.302;2022-12-18T05:56:05;21.3;;;14.2;;
44126;SDS011;29786;50.798;7.302;2022-12-18T05:57:04;22.4;;;14.4;;
44126;SDS011;29786;50.798;7.302;2022-12-18T05:58:04;18.1;;;13.6;;
44126;SDS011;29786;50.798;7.302;2022-12-18T05:59:04;19.7;;;13.5;;
44126;SDS011;29786;50.798;7.302;2022-12-18T06:00:04;19.8;;;14;;
44126;SDS011;29786;50.798;7.302;2022-12-18T06:01:06;20.1;;;13.9;;
44126;SDS011;29786;50.798;7.302;2022-12-18T06:02:04;20;;;13.9;;
44126;SDS011;29786;50.798;7.302;2022-12-18T06:03:05;18.2;;;13.2;;
44126;SDS011;29786;50.798;7.302;2022-12-18T06:04:04;17.7;;;13.4;;
44126;SDS011;29786;50.798;7.302;2022-12-18T06:05:04;19.5;;;13.9;;